Olympia, Washington
Current Conditions -  °F | °C
As of 5:20 AM on Thursday 27 Nov 2014 (Local Time) from KOLM Reporting Station
Overcast Overcast  
Wind Chill: 52°   Ceiling: 2300
Heat Index: 52°   Visibility: 10mi
Dew Point: 49°   Wind: 18mph
Humidity: 89%   Direction: 180°S
Pressure: 29.87"   Gusts: 25mph
Location:  47.04°N, 122.89°W
Report Text: KOLM 271320Z AUTO 18016G22KT 10SM SCT011 OVC023 11/09 A2987 RMK AO2 RAE16 P0001 T01110094
Loading
Personal Weather Stations






























Interactive Weather Map New forecast layout! Learn more

10-Day Weather Forecast

Advertisements
Track Severe Weather on mobile